Página principal
METAR-TAF:

METAR-TAF

Aeroportos :

Semei, Cazaquistão

latitude: 50-21-05N, longitude: 080-14-04E, altura: 232 m

Observação actual do tempo

O boletim foi feito há 40 minutos, às 12:30 UTC
Vento 4 kt de noroeste, variando entre oes-noroeste e norte
Temperatura 13°C
Humidade 72%
Pressão 1019 hPa
Visibilidade 10 km ou mais
Nuvens fragmentadasa uma altura de 4300 ft, Cumulonimbus.

METAR: UASS 241230Z 32002MPS 290V350 9999 BKN043CB 13/08 Q1019 R26/2///60 NOSIG RMK QFE746/0995

Hora: 19:10 (13:10 UTC)

Previsão

O boletim foi feito há 2 horas e 10 minutos, às 11:00 UTC
Previsão válida de 24 às 12 UTC a 24 às 21 UTC
Vento 12 kt de oes-noroeste
Visibilidade 10 km ou mais
Nuvens fragmentadasa uma altura de 4000 ft, Cumulonimbus.
Temporariamente
de 24 às 12 UTC a 24 às 18 UTC
Vento 14 kt de noroeste com rajadas de 23 kt
Visibilidade: 5000 m
aguaceiros fracos de chuva

TAF: UASS 241100Z 2412/2421 30006MPS 9999 BKN040CB TEMPO 2412/2418 32007G12MPS 5000 -SHRA

Observações e previsões do tempo de mais de 4000 aeroportos (mensagens METAR e TAF).

As estações disponíveis são os pontos amarelos e vermelhos sobre o mapa.

Mova o rato sobre o mapa para ver o nome da estação.

Depois clique no ponto para visualizar as observações e previsões meteorológicas.

Para alterar o mapa : clique nos botões verdes com uma cruz preta para aumentar o zoom; no botão verde com uma pitada de zoom; ou nas setas verdes para mapas adjacentes.


METAR-TAF: